Time;durP1;ratioP1;P1;durP2;ratioP2;P2;SDS_P1;SDS_P2;PMS_P1;PMS_P2;Temp;Humidity;BMP_temperature;BMP_pressure;BME280_temperature;BME280_humidity;BME280_pressure;Samples;Min_cycle;Max_cycle;Signal;HPM_P1;HPM_P2
2021/03/21 00:01:17;;;;;;;2.25;1.60;;;3.70;99.90;;;;;;4960619;27;20166;-85
2021/03/21 00:03:40;;;;;;;4.82;1.40;;;;;;;;;;4965243;27;20130;-84
2021/03/21 00:06:04;;;;;;;2.47;1.55;;;3.70;99.90;;;;;;4969295;27;20473;-85
2021/03/21 00:08:29;;;;;;;3.10;1.70;;;3.70;99.90;;;;;;4966854;27;20188;-86
2021/03/21 00:10:54;;;;;;;2.30;1.38;;;3.70;99.90;;;;;;4967533;27;20090;-85
2021/03/21 00:13:18;;;;;;;2.30;1.48;;;3.70;99.90;;;;;;4966750;27;20089;-85
2021/03/21 00:15:41;;;;;;;2.40;1.67;;;3.80;99.90;;;;;;4965748;27;20085;-87
2021/03/21 00:18:05;;;;;;;3.70;1.90;;;3.80;99.90;;;;;;4958178;27;20097;-81
2021/03/21 00:20:33;;;;;;;3.13;1.73;;;3.80;99.90;;;;;;4966476;27;20086;-87
2021/03/21 00:22:57;;;;;;;2.95;1.92;;;3.80;99.90;;;;;;4965023;27;20119;-86
2021/03/21 00:25:22;;;;;;;4.57;1.52;;;3.80;99.90;;;;;;4961310;27;20618;-88
2021/03/21 00:27:45;;;;;;;4.90;2.00;;;;;;;;;;4959677;27;20180;-82
2021/03/21 00:30:12;;;;;;;2.00;1.38;;;3.80;99.90;;;;;;4970553;27;20162;-87
2021/03/21 00:32:35;;;;;;;3.42;1.58;;;3.80;99.90;;;;;;4968551;27;20093;-88
2021/03/21 00:34:58;;;;;;;5.30;1.70;;;3.80;99.90;;;;;;4961208;27;20110;-86
2021/03/21 00:37:22;;;;;;;3.63;1.50;;;;;;;;;;4950486;27;20181;-86
2021/03/21 00:39:45;;;;;;;5.05;1.70;;;3.80;99.90;;;;;;4959347;27;20156;-86
2021/03/21 00:42:09;;;;;;;2.92;1.70;;;3.90;99.90;;;;;;4968773;27;20176;-85
2021/03/21 00:44:34;;;;;;;3.03;1.70;;;3.90;99.90;;;;;;4970173;27;20165;-82
2021/03/21 00:46:59;;;;;;;3.92;1.60;;;3.80;99.90;;;;;;4968845;27;20168;-84
2021/03/21 00:49:23;;;;;;;3.22;1.48;;;3.80;99.90;;;;;;4964560;27;20144;-81
2021/03/21 00:51:47;;;;;;;2.67;1.65;;;3.90;99.90;;;;;;4969333;27;20189;-85
2021/03/21 00:54:10;;;;;;;2.67;1.65;;;3.90;99.90;;;;;;4968188;27;20138;-85
2021/03/21 00:56:41;;;;;;;2.22;1.75;;;3.90;99.90;;;;;;4965163;27;20101;-82
2021/03/21 00:59:07;;;;;;;2.70;1.63;;;3.90;99.90;;;;;;4967819;27;20082;-87
2021/03/21 01:01:32;;;;;;;7.95;2.03;;;3.90;99.90;;;;;;4956533;27;20599;-86
2021/03/21 01:03:55;;;;;;;2.72;1.92;;;3.90;99.90;;;;;;4954132;27;20150;-86
2021/03/21 01:06:19;;;;;;;6.28;1.80;;;3.90;99.90;;;;;;4968247;27;20091;-83
2021/03/21 01:08:43;;;;;;;3.75;1.77;;;3.90;99.90;;;;;;4966603;27;20112;-87
2021/03/21 01:11:11;;;;;;;4.22;1.83;;;3.90;99.90;;;;;;4966453;27;20158;-87
2021/03/21 01:13:35;;;;;;;6.35;1.80;;;3.90;99.90;;;;;;4954945;27;20580;-87
2021/03/21 01:15:58;;;;;;;6.80;1.85;;;4.00;99.90;;;;;;4966420;27;20094;-86
2021/03/21 01:18:24;;;;;;;3.38;1.92;;;4.00;99.90;;;;;;4968697;27;20164;-85
2021/03/21 01:20:49;;;;;;;2.70;1.58;;;;;;;;;;4968471;27;20089;-81
2021/03/21 01:23:13;;;;;;;2.72;1.60;;;4.00;99.90;;;;;;4967297;27;20168;-81
2021/03/21 01:25:38;;;;;;;4.53;1.90;;;4.00;99.90;;;;;;4969060;27;20118;-86
2021/03/21 01:28:00;;;;;;;2.97;1.90;;;4.00;99.90;;;;;;4949530;27;20142;-86
2021/03/21 01:30:25;;;;;;;3.10;2.00;;;4.00;99.90;;;;;;4966251;27;20086;-88
2021/03/21 01:32:50;;;;;;;4.53;1.98;;;4.00;99.90;;;;;;4967010;27;20576;-85
2021/03/21 01:35:13;;;;;;;3.63;1.90;;;4.00;99.90;;;;;;4966122;27;20111;-84
2021/03/21 01:37:36;;;;;;;2.72;1.80;;;4.00;99.90;;;;;;4968087;27;20128;-85
2021/03/21 01:40:03;;;;;;;6.55;1.75;;;4.00;99.90;;;;;;4963335;27;20533;-83
2021/03/21 01:42:35;;;;;;;5.72;2.30;;;4.00;99.90;;;;;;4967576;27;20090;-81
2021/03/21 01:44:57;;;;;;;2.88;1.77;;;4.10;99.90;;;;;;4968082;27;20309;-87
2021/03/21 01:47:33;;;;;;;6.40;2.20;;;4.00;99.90;;;;;;4965838;27;20175;-85
2021/03/21 01:49:58;;;;;;;5.20;2.10;;;4.10;99.90;;;;;;4966027;27;20534;-85
2021/03/21 01:52:37;;;;;;;5.35;1.80;;;4.10;99.90;;;;;;4964714;27;20092;-85
2021/03/21 01:55:02;;;;;;;4.15;1.95;;;4.10;99.90;;;;;;4960405;27;20093;-86
2021/03/21 01:57:28;;;;;;;5.47;1.98;;;4.10;99.90;;;;;;4965970;27;20088;-86
2021/03/21 01:59:51;;;;;;;3.50;1.67;;;4.10;99.90;;;;;;4964500;27;20130;-83
2021/03/21 02:02:16;;;;;;;4.03;1.98;;;4.10;99.90;;;;;;4967510;27;21613;-84
2021/03/21 02:04:39;;;;;;;7.05;2.25;;;4.10;99.90;;;;;;4956246;27;20082;-85
2021/03/21 02:07:22;;;;;;;2.35;1.30;;;4.20;99.90;;;;;;4966765;27;20094;-87
2021/03/21 02:09:55;;;;;;;6.75;1.73;;;4.20;99.90;;;;;;4964393;27;20093;-85
2021/03/21 02:12:33;;;;;;;3.90;1.50;;;4.20;99.90;;;;;;4964817;27;20083;-86
2021/03/21 02:15:07;;;;;;;3.30;1.65;;;4.20;99.90;;;;;;4964087;27;20144;-84
2021/03/21 02:17:35;;;;;;;3.67;1.45;;;4.20;99.90;;;;;;4966944;27;20134;-86
2021/03/21 02:20:43;;;;;;;4.28;1.30;;;4.20;99.90;;;;;;4958023;27;20080;-86
2021/03/21 02:23:11;;;;;;;3.28;1.40;;;4.30;99.90;;;;;;4919335;27;20089;-86
2021/03/21 02:26:23;;;;;;;5.80;1.75;;;4.30;99.90;;;;;;4963854;27;20165;-83
2021/03/21 02:29:13;;;;;;;6.15;1.40;;;4.30;99.90;;;;;;4955889;27;20492;-84
2021/03/21 02:31:40;;;;;;;5.57;1.48;;;4.30;99.90;;;;;;4963741;27;20093;-85
2021/03/21 02:34:10;;;;;;;3.80;1.60;;;4.30;99.90;;;;;;4965365;27;20112;-86
2021/03/21 02:36:42;;;;;;;3.50;1.60;;;4.30;99.90;;;;;;4961971;27;20505;-83
2021/03/21 02:39:13;;;;;;;2.33;1.27;;;4.30;99.90;;;;;;4963369;27;23397;-87
2021/03/21 02:41:42;;;;;;;5.70;1.95;;;4.30;99.90;;;;;;4958574;27;20081;-84
2021/03/21 02:44:11;;;;;;;8.27;1.90;;;4.30;99.90;;;;;;4960636;27;20093;-86
2021/03/21 02:46:39;;;;;;;3.40;1.48;;;4.40;99.90;;;;;;4955607;27;20198;-85
2021/03/21 02:49:08;;;;;;;2.70;1.40;;;4.40;99.90;;;;;;4962148;27;20089;-85
2021/03/21 02:51:37;;;;;;;3.05;1.40;;;4.40;99.90;;;;;;4966747;27;20185;-87
2021/03/21 02:54:08;;;;;;;8.40;1.52;;;4.40;99.90;;;;;;4963809;27;20126;-85
2021/03/21 02:56:31;;;;;;;4.50;1.38;;;4.40;99.90;;;;;;4966221;27;20093;-86
2021/03/21 02:59:02;;;;;;;5.72;1.45;;;4.40;99.90;;;;;;4965718;27;20078;-86
2021/03/21 03:01:29;;;;;;;1.42;0.98;;;4.50;99.90;;;;;;4965864;27;20100;-86
2021/03/21 03:03:58;;;;;;;6.40;1.67;;;4.50;99.90;;;;;;4964492;27;20085;-86
2021/03/21 03:06:32;;;;;;;4.65;1.55;;;4.50;99.90;;;;;;4966230;27;20940;-86
2021/03/21 03:09:00;;;;;;;2.55;1.17;;;4.50;99.90;;;;;;4960956;27;20092;-86
2021/03/21 03:11:28;;;;;;;1.90;1.13;;;4.50;99.90;;;;;;4965622;27;20088;-86
2021/03/21 03:13:57;;;;;;;3.25;1.45;;;4.50;99.90;;;;;;4966772;27;20081;-87
2021/03/21 03:16:25;;;;;;;2.15;1.30;;;4.50;99.90;;;;;;4969362;27;20118;-86
2021/03/21 03:18:52;;;;;;;1.50;0.93;;;4.50;99.90;;;;;;4967940;27;20469;-85
2021/03/21 03:21:22;;;;;;;4.40;1.50;;;4.50;99.90;;;;;;4970279;27;20130;-86
2021/03/21 03:23:52;;;;;;;2.38;1.15;;;4.50;99.90;;;;;;4959669;27;20157;-85
2021/03/21 03:26:21;;;;;;;2.05;1.30;;;4.50;99.90;;;;;;4967348;27;20088;-86
2021/03/21 03:28:50;;;;;;;2.40;1.42;;;4.60;99.90;;;;;;4958786;27;20082;-82
2021/03/21 03:31:17;;;;;;;3.95;1.02;;;4.50;99.90;;;;;;4969744;27;20172;-86
2021/03/21 03:33:41;;;;;;;1.48;1.00;;;4.50;99.90;;;;;;4968405;27;20081;-85
2021/03/21 03:36:12;;;;;;;4.13;1.20;;;4.50;99.90;;;;;;4967268;27;20089;-83
2021/03/21 03:38:37;;;;;;;1.95;1.17;;;4.50;99.90;;;;;;4954451;27;21294;-84
2021/03/21 03:41:07;;;;;;;1.73;1.13;;;4.50;99.90;;;;;;4970630;27;20504;-85
2021/03/21 03:43:38;;;;;;;2.40;1.08;;;4.50;99.90;;;;;;4968506;27;20092;-82
2021/03/21 03:46:13;;;;;;;1.67;0.90;;;4.50;99.90;;;;;;4969001;27;20092;-84
2021/03/21 03:48:44;;;;;;;2.60;0.90;;;4.50;99.90;;;;;;4952174;27;20142;-84
2021/03/21 03:51:16;;;;;;;1.48;0.80;;;4.50;99.90;;;;;;4968229;27;20090;-84
2021/03/21 03:53:53;;;;;;;2.20;1.20;;;4.50;99.90;;;;;;4969629;27;20101;-87
2021/03/21 03:56:23;;;;;;;2.33;0.95;;;4.50;99.90;;;;;;4957201;27;20530;-85
2021/03/21 03:59:03;;;;;;;2.03;1.08;;;4.60;99.90;;;;;;4967447;27;20089;-83
2021/03/21 04:01:36;;;;;;;2.13;1.10;;;4.60;99.90;;;;;;4965607;27;20164;-83
2021/03/21 04:04:06;;;;;;;2.10;0.90;;;4.60;99.90;;;;;;4967804;27;20086;-87
2021/03/21 04:06:37;;;;;;;2.42;0.98;;;4.60;99.90;;;;;;4970089;27;20103;-86
2021/03/21 04:09:14;;;;;;;2.78;0.98;;;4.60;99.90;;;;;;4965102;27;20089;-85
2021/03/21 04:11:43;;;;;;;3.35;1.70;;;4.60;99.90;;;;;;4965872;27;20156;-84
2021/03/21 04:14:12;;;;;;;1.85;1.02;;;4.60;99.90;;;;;;4969097;27;20599;-84
2021/03/21 04:16:43;;;;;;;4.05;1.30;;;4.60;99.90;;;;;;4969144;27;20772;-85
2021/03/21 04:19:08;;;;;;;2.45;1.17;;;4.60;99.90;;;;;;4966584;27;20103;-84
2021/03/21 04:21:36;;;;;;;2.28;1.05;;;4.60;99.90;;;;;;4969266;27;20104;-83
2021/03/21 04:24:05;;;;;;;4.88;1.75;;;4.60;99.90;;;;;;4966895;27;20160;-85
2021/03/21 04:26:37;;;;;;;2.55;1.30;;;4.70;99.90;;;;;;4965249;27;20088;-82
2021/03/21 04:29:05;;;;;;;2.22;1.20;;;4.70;99.90;;;;;;4954458;27;20448;-83
2021/03/21 04:31:30;;;;;;;3.70;1.60;;;4.70;99.90;;;;;;4967694;27;20496;-84
2021/03/21 04:33:56;;;;;;;2.17;1.38;;;4.70;99.90;;;;;;4967790;27;20085;-83
2021/03/21 04:36:24;;;;;;;4.30;1.40;;;4.70;99.90;;;;;;4965309;27;20536;-84
2021/03/21 04:38:52;;;;;;;3.47;1.70;;;4.70;99.90;;;;;;4963479;27;20101;-83
2021/03/21 04:41:22;;;;;;;9.80;2.65;;;4.70;99.90;;;;;;4967309;27;20109;-81
2021/03/21 04:43:58;;;;;;;6.68;1.50;;;4.70;99.90;;;;;;4966255;27;20166;-83
2021/03/21 04:46:33;;;;;;;5.18;1.55;;;4.70;99.90;;;;;;4968287;27;20149;-84
2021/03/21 04:48:56;;;;;;;3.05;1.52;;;4.80;99.90;;;;;;4942844;27;20097;-81
2021/03/21 04:51:23;;;;;;;17.10;2.10;;;4.80;99.90;;;;;;4967549;27;20219;-83
2021/03/21 04:53:59;;;;;;;6.47;1.98;;;4.80;99.90;;;;;;4966604;27;20084;-84
2021/03/21 04:56:27;;;;;;;6.10;2.05;;;4.80;99.90;;;;;;4968373;27;20099;-83
2021/03/21 04:58:53;;;;;;;6.13;1.75;;;4.80;99.90;;;;;;4966406;27;20219;-84
2021/03/21 05:01:24;;;;;;;4.07;1.95;;;4.80;99.90;;;;;;4966423;27;20100;-82
2021/03/21 05:03:53;;;;;;;4.68;1.60;;;4.80;99.90;;;;;;4966021;27;20082;-83
2021/03/21 05:06:22;;;;;;;6.15;1.58;;;4.80;99.90;;;;;;4966909;27;20165;-83
2021/03/21 05:08:51;;;;;;;2.72;1.10;;;4.80;99.90;;;;;;4964430;27;20084;-83
2021/03/21 05:11:17;;;;;;;2.20;1.02;;;4.80;99.90;;;;;;4968875;27;20984;-83
2021/03/21 05:13:49;;;;;;;4.38;1.48;;;4.90;99.90;;;;;;4967234;27;20085;-83
2021/03/21 05:16:17;;;;;;;5.95;1.13;;;4.90;99.90;;;;;;4965671;27;20093;-84
2021/03/21 05:18:49;;;;;;;1.85;1.05;;;4.90;99.90;;;;;;4965318;27;20524;-82
2021/03/21 05:21:17;;;;;;;4.30;1.30;;;4.90;99.90;;;;;;4964135;27;20489;-84
2021/03/21 05:23:58;;;;;;;1.42;0.95;;;4.90;99.90;;;;;;4955627;27;20145;-84
2021/03/21 05:26:27;;;;;;;2.17;0.98;;;5.00;99.90;;;;;;4963369;27;20096;-82
2021/03/21 05:29:22;;;;;;;1.52;0.75;;;5.00;99.90;;;;;;4950075;27;20641;-83
2021/03/21 05:31:46;;;;;;;2.42;0.98;;;5.00;99.90;;;;;;4958216;27;20500;-82
2021/03/21 05:34:09;;;;;;;1.08;0.70;;;5.00;99.90;;;;;;4959710;27;20077;-83
2021/03/21 05:36:50;;;;;;;2.03;1.08;;;5.00;99.90;;;;;;4965895;27;20520;-80
2021/03/21 05:39:23;;;;;;;4.38;0.95;;;6.50;99.90;;;;;;4962819;27;20799;-81
2021/03/21 05:42:12;;;;;;;4.22;1.15;;;5.00;99.90;;;;;;4966053;27;20145;-84
2021/03/21 05:45:04;;;;;;;4.15;0.75;;;5.00;99.90;;;;;;4874732;28;20111;-83
2021/03/21 05:47:54;;;;;;;4.03;1.40;;;5.00;99.90;;;;;;4928944;27;20089;-82
2021/03/21 05:50:49;;;;;;;4.22;1.27;;;5.00;99.90;;;;;;4961052;27;20077;-83
2021/03/21 05:53:51;;;;;;;1.73;1.15;;;5.00;99.90;;;;;;4957340;27;20099;-82
2021/03/21 05:56:45;;;;;;;4.13;1.77;;;5.00;99.90;;;;;;4941800;27;25351;-82
2021/03/21 05:59:21;;;;;;;2.95;1.45;;;5.00;99.90;;;;;;4965615;27;20486;-82
2021/03/21 06:02:20;;;;;;;2.53;1.70;;;5.10;99.90;;;;;;4967828;27;20153;-80
2021/03/21 06:05:29;;;;;;;2.55;1.45;;;5.10;99.90;;;;;;4965755;27;20101;-84
2021/03/21 06:08:19;;;;;;;3.22;1.27;;;5.10;99.90;;;;;;4958819;27;20092;-81
2021/03/21 06:11:34;;;;;;;6.80;1.73;;;5.10;99.90;;;;;;4966724;27;20534;-83
2021/03/21 06:14:24;;;;;;;4.15;1.95;;;5.10;99.90;;;;;;4961864;27;20085;-82
2021/03/21 06:17:22;;;;;;;6.82;2.20;;;5.10;99.90;;;;;;4962307;27;20111;-82
2021/03/21 06:20:03;;;;;;;5.38;2.35;;;5.10;99.90;;;;;;4930499;27;20131;-82
2021/03/21 06:22:55;;;;;;;4.93;3.28;;;5.10;99.90;;;;;;4960059;27;20081;-83
2021/03/21 06:25:55;;;;;;;5.15;2.45;;;5.10;99.90;;;;;;4946007;27;20185;-84
2021/03/21 06:28:48;;;;;;;8.65;3.33;;;5.10;99.90;;;;;;4958127;27;20180;-83
2021/03/21 06:31:46;;;;;;;6.57;2.38;;;5.20;99.90;;;;;;4950007;27;20205;-81
2021/03/21 06:34:20;;;;;;;9.18;3.22;;;5.20;99.90;;;;;;4952853;27;20087;-81
2021/03/21 06:36:48;;;;;;;13.23;3.33;;;5.20;99.90;;;;;;4954032;27;20493;-82
2021/03/21 06:39:56;;;;;;;10.05;2.90;;;5.20;99.90;;;;;;4950932;27;20150;-81
2021/03/21 06:42:33;;;;;;;;;;;5.20;99.90;;;;;;4957436;27;20093;-84
2021/03/21 06:45:18;;;;;;;6.28;2.63;;;5.30;99.90;;;;;;4963977;27;20057;-82
2021/03/21 06:48:24;;;;;;;7.18;3.25;;;5.30;99.90;;;;;;4965182;27;20524;-81
2021/03/21 06:51:16;;;;;;;11.30;3.03;;;5.40;99.90;;;;;;4933264;27;20111;-80
2021/03/21 06:53:51;;;;;;;9.27;3.17;;;5.40;99.90;;;;;;4960113;27;20082;-80
2021/03/21 06:56:43;;;;;;;13.47;2.87;;;5.40;99.90;;;;;;4967182;27;20093;-80
2021/03/21 06:59:31;;;;;;;11.18;3.17;;;5.40;99.90;;;;;;4968547;27;20513;-82
2021/03/21 07:02:03;;;;;;;9.43;3.55;;;5.40;99.90;;;;;;4969283;27;20170;-83
2021/03/21 07:05:02;;;;;;;12.25;3.72;;;5.40;99.90;;;;;;4969456;27;20908;-82
2021/03/21 07:08:04;;;;;;;5.10;2.63;;;5.60;99.90;;;;;;4964311;27;20077;-84
2021/03/21 07:10:57;;;;;;;11.30;3.17;;;5.70;99.90;;;;;;4965869;27;20093;-82
2021/03/21 07:14:00;;;;;;;6.43;2.13;;;5.80;99.90;;;;;;4969508;27;20430;-82
2021/03/21 07:16:58;;;;;;;11.32;3.60;;;6.00;99.90;;;;;;4967337;27;20095;-81
2021/03/21 07:19:58;;;;;;;14.18;3.50;;;6.00;99.90;;;;;;4963321;27;20518;-82
2021/03/21 07:22:58;;;;;;;10.85;3.38;;;6.10;99.90;;;;;;4966739;27;20077;-82
2021/03/21 07:25:56;;;;;;;8.95;2.38;;;6.10;99.90;;;;;;4969178;27;20348;-82
2021/03/21 07:28:50;;;;;;;8.30;2.08;;;6.30;99.90;;;;;;4964091;27;20137;-82
2021/03/21 07:31:28;;;;;;;7.45;3.03;;;6.20;99.90;;;;;;4959649;27;20130;-82
2021/03/21 07:34:17;;;;;;;8.15;2.28;;;6.10;99.90;;;;;;4970255;27;20169;-81
2021/03/21 07:36:49;;;;;;;11.38;2.25;;;6.10;99.90;;;;;;4967642;27;20093;-82
2021/03/21 07:39:30;;;;;;;7.53;2.38;;;6.10;99.90;;;;;;4968804;27;20115;-82
2021/03/21 07:42:18;;;;;;;9.68;2.30;;;6.10;99.90;;;;;;4955586;27;20085;-82
2021/03/21 07:45:02;;;;;;;8.82;2.08;;;6.10;99.90;;;;;;4950562;27;20109;-83
2021/03/21 07:47:40;;;;;;;7.65;2.17;;;6.10;99.90;;;;;;4945952;27;20158;-82
2021/03/21 07:50:28;;;;;;;9.38;2.38;;;6.00;99.90;;;;;;4968838;27;20168;-83
2021/03/21 07:53:04;;;;;;;5.88;2.28;;;6.00;99.90;;;;;;4958452;27;20077;-82
2021/03/21 07:55:33;;;;;;;8.35;2.20;;;6.00;99.90;;;;;;4968686;27;20089;-83
2021/03/21 07:58:07;;;;;;;3.95;1.50;;;6.00;99.90;;;;;;4969575;27;20109;-84
2021/03/21 08:00:31;;;;;;;9.27;2.20;;;6.00;99.90;;;;;;4969854;27;20107;-85
2021/03/21 08:03:20;;;;;;;10.27;2.55;;;6.00;99.90;;;;;;4967717;27;20100;-86
2021/03/21 08:05:54;;;;;;;12.30;2.20;;;6.00;99.90;;;;;;4956262;27;20116;-83
2021/03/21 08:08:23;;;;;;;8.23;1.63;;;5.90;99.90;;;;;;4966296;27;20105;-83
2021/03/21 08:10:53;;;;;;;9.98;2.10;;;5.90;99.90;;;;;;4966925;27;20077;-82
2021/03/21 08:13:24;;;;;;;10.20;2.22;;;5.90;99.90;;;;;;4965397;27;20524;-85
2021/03/21 08:15:47;;;;;;;12.35;1.83;;;5.90;99.90;;;;;;4966658;27;20160;-86
2021/03/21 08:18:15;;;;;;;9.48;2.22;;;5.90;99.90;;;;;;4970505;27;20093;-84
2021/03/21 08:20:41;;;;;;;4.18;1.25;;;5.90;99.90;;;;;;4970247;27;20109;-85
2021/03/21 08:23:13;;;;;;;;;;;5.90;99.90;;;;;;4969896;27;20097;-85
2021/03/21 08:25:37;;;;;;;8.00;1.58;;;5.90;99.90;;;;;;4969183;27;20404;-84
2021/03/21 08:28:00;;;;;;;8.43;1.38;;;5.90;99.90;;;;;;4966475;27;20444;-85
2021/03/21 08:30:27;;;;;;;8.48;1.55;;;5.80;99.90;;;;;;4970803;27;20085;-80
2021/03/21 08:32:57;;;;;;;16.55;1.92;;;5.80;99.90;;;;;;4961907;27;20093;-82
2021/03/21 08:35:25;;;;;;;12.50;2.35;;;5.90;99.90;;;;;;4966994;27;20156;-83
2021/03/21 08:38:04;;;;;;;6.50;1.67;;;5.80;99.90;;;;;;4963062;27;20134;-82
2021/03/21 08:40:36;;;;;;;10.30;1.90;;;5.90;99.90;;;;;;4967591;27;20169;-85
2021/03/21 08:43:17;;;;;;;10.32;1.80;;;5.90;99.90;;;;;;4961628;27;20093;-86
2021/03/21 08:45:49;;;;;;;11.55;2.42;;;6.00;99.90;;;;;;4965631;27;20081;-82
2021/03/21 08:48:31;;;;;;;19.25;2.15;;;6.00;99.90;;;;;;4962488;27;21912;-84
2021/03/21 08:50:58;;;;;;;8.85;1.88;;;6.20;99.90;;;;;;4968215;27;20088;-83
2021/03/21 08:53:37;;;;;;;7.40;1.92;;;6.10;99.90;;;;;;4967195;27;20113;-85
2021/03/21 08:56:22;;;;;;;6.18;1.58;;;6.10;99.90;;;;;;4967842;27;20092;-84
2021/03/21 08:58:53;;;;;;;6.85;1.73;;;6.70;99.90;;;;;;4966383;27;20117;-85
2021/03/21 09:01:56;;;;;;;14.75;2.33;;;7.00;99.90;;;;;;4938718;27;20459;-86
2021/03/21 09:04:47;;;;;;;14.45;1.98;;;7.00;99.90;;;;;;4913706;27;20092;-83
2021/03/21 09:07:49;;;;;;;9.93;1.90;;;7.20;99.90;;;;;;4915250;27;25537;-83
2021/03/21 09:10:45;;;;;;;13.98;1.55;;;8.20;99.90;;;;;;4913176;27;20088;-82
2021/03/21 09:13:19;;;;;;;11.40;1.80;;;8.00;99.90;;;;;;4923388;27;20089;-85
2021/03/21 09:15:49;;;;;;;10.88;1.48;;;8.60;99.90;;;;;;4922377;27;20119;-83
2021/03/21 09:18:25;;;;;;;12.38;2.10;;;8.70;99.90;;;;;;4907284;27;20088;-82
2021/03/21 09:21:26;;;;;;;5.35;1.17;;;8.60;99.90;;;;;;4922459;27;20121;-83
2021/03/21 09:23:56;;;;;;;13.27;2.03;;;8.90;99.90;;;;;;4917980;27;20502;-83
2021/03/21 09:27:12;;;;;;;12.63;1.75;;;9.30;99.90;;;;;;4880322;27;20092;-81
2021/03/21 09:29:45;;;;;;;10.38;1.70;;;8.60;99.90;;;;;;4925897;27;20084;-84
2021/03/21 09:32:25;;;;;;;11.25;1.40;;;9.00;99.90;;;;;;4906893;27;20086;-83
2021/03/21 09:35:54;;;;;;;11.93;1.60;;;9.40;99.90;;;;;;4919707;27;20089;-84
2021/03/21 09:38:51;;;;;;;8.27;1.48;;;8.80;99.90;;;;;;4824948;28;20097;-82
2021/03/21 09:41:42;;;;;;;6.63;1.30;;;8.80;99.90;;;;;;4839336;28;20095;-83
2021/03/21 09:44:57;;;;;;;4.78;0.50;;;8.90;99.90;;;;;;4908147;27;20092;-85
2021/03/21 09:47:53;;;;;;;7.28;1.02;;;8.50;99.90;;;;;;4908215;27;20088;-89
2021/03/21 09:50:35;;;;;;;6.18;1.17;;;8.90;99.90;;;;;;4914995;27;20170;-86
2021/03/21 09:56:54;;;;;;;8.02;0.95;;;8.70;99.90;;;;;;4922813;27;20087;-83
2021/03/21 10:02:45;;;;;;;6.85;0.90;;;8.50;99.90;;;;;;4918040;27;20121;-81
2021/03/21 10:05:34;;;;;;;6.50;0.73;;;8.70;99.90;;;;;;4909316;27;21898;-89
2021/03/21 10:08:34;;;;;;;4.75;0.85;;;8.70;99.90;;;;;;4898653;27;20497;-87
2021/03/21 10:15:02;;;;;;;4.00;0.50;;;8.70;99.90;;;;;;4908521;27;20122;-84
2021/03/21 10:17:54;;;;;;;9.30;0.93;;;8.60;99.90;;;;;;4896130;27;21994;-83
2021/03/21 10:20:23;;;;;;;7.60;0.85;;;8.20;99.90;;;;;;4914819;27;20086;-86
2021/03/21 10:23:01;;;;;;;6.25;1.00;;;8.10;99.90;;;;;;4921580;27;20080;-84
2021/03/21 10:25:55;;;;;;;5.25;1.25;;;8.40;99.90;;;;;;4915827;27;20115;-85
2021/03/21 10:28:43;;;;;;;7.30;0.93;;;8.60;99.90;;;;;;4913002;27;20090;-81
2021/03/21 10:31:41;;;;;;;6.53;0.70;;;7.80;99.90;;;;;;4939926;27;20157;-85
2021/03/21 10:34:38;;;;;;;3.92;0.70;;;8.10;99.90;;;;;;4893292;27;20512;-87
2021/03/21 10:37:11;;;;;;;7.72;0.70;;;8.60;99.90;;;;;;4930497;27;20100;-85
2021/03/21 10:40:03;;;;;;;6.93;0.75;;;8.70;99.90;;;;;;4907010;27;20087;-82
2021/03/21 10:45:56;;;;;;;4.90;0.77;;;8.10;99.90;;;;;;4904734;27;20076;-87
2021/03/21 10:48:54;;;;;;;2.72;0.70;;;8.00;99.90;;;;;;4882640;27;20080;-85
2021/03/21 10:51:40;;;;;;;4.68;0.60;;;8.10;99.90;;;;;;4922103;27;20591;-84
2021/03/21 10:54:26;;;;;;;4.28;0.60;;;8.10;99.90;;;;;;4935076;27;20162;-86
2021/03/21 10:57:13;;;;;;;;;;;7.80;99.90;;;;;;4937240;27;20144;-85
2021/03/21 10:59:35;;;;;;;1.98;0.57;;;8.00;99.90;;;;;;4902005;27;19969;-84
2021/03/21 11:02:19;;;;;;;6.95;0.80;;;8.50;99.90;;;;;;4963416;27;20100;-86
2021/03/21 11:04:42;;;;;;;2.47;0.57;;;8.60;99.90;;;;;;4960869;27;20500;-86
2021/03/21 11:07:14;;;;;;;2.85;0.65;;;8.20;99.90;;;;;;4963307;27;20088;-84
2021/03/21 11:09:52;;;;;;;3.92;0.65;;;8.40;99.90;;;;;;4963488;27;20101;-85
2021/03/21 11:12:16;;;;;;;8.35;0.90;;;8.60;99.90;;;;;;4965518;27;20100;-86
2021/03/21 11:14:39;;;;;;;3.38;0.80;;;8.40;99.90;;;;;;4965850;27;20128;-87
2021/03/21 11:17:05;;;;;;;6.60;0.80;;;8.60;99.90;;;;;;4965106;27;20618;-88
2021/03/21 11:19:30;;;;;;;4.05;0.73;;;8.60;99.90;;;;;;4964450;27;20096;-87
2021/03/21 11:21:53;;;;;;;4.65;0.80;;;;;;;;;;4964204;27;20083;-86
2021/03/21 11:24:35;;;;;;;3.03;0.63;;;8.80;99.90;;;;;;4964295;27;20088;-86
2021/03/21 11:27:01;;;;;;;4.28;0.90;;;8.70;99.90;;;;;;4963011;27;20171;-88
2021/03/21 11:29:31;;;;;;;1.40;0.38;;;8.60;99.90;;;;;;4965238;27;20179;-87
2021/03/21 11:32:01;;;;;;;3.53;0.70;;;8.90;99.90;;;;;;4959690;27;20583;-87
2021/03/21 11:34:27;;;;;;;3.72;0.60;;;8.60;99.90;;;;;;4960336;27;20096;-86
2021/03/21 11:37:04;;;;;;;2.30;0.68;;;8.70;99.90;;;;;;4967799;27;20113;-84
2021/03/21 11:39:34;;;;;;;3.75;0.35;;;9.00;99.90;;;;;;4964665;27;20078;-85
2021/03/21 11:41:57;;;;;;;5.32;0.70;;;;;;;;;;4964845;27;20133;-88
2021/03/21 11:44:25;;;;;;;4.03;0.98;;;9.00;99.90;;;;;;4967981;27;20081;-87
2021/03/21 11:47:12;;;;;;;3.30;0.45;;;8.60;99.90;;;;;;4965388;27;20507;-88
2021/03/21 11:49:37;;;;;;;4.50;0.50;;;8.50;99.90;;;;;;4969095;27;20091;-86
2021/03/21 11:52:02;;;;;;;2.67;0.63;;;8.80;99.90;;;;;;4965192;27;20166;-87
2021/03/21 11:54:29;;;;;;;1.50;0.30;;;9.00;99.90;;;;;;4970415;27;20140;-86
2021/03/21 11:57:03;;;;;;;2.35;0.40;;;8.60;99.90;;;;;;4969259;27;20080;-86
2021/03/21 11:59:31;;;;;;;3.13;0.93;;;8.80;99.90;;;;;;4970271;27;20080;-87
2021/03/21 12:01:58;;;;;;;7.07;0.70;;;8.90;99.90;;;;;;4969330;27;20106;-86
2021/03/21 12:04:25;;;;;;;4.10;0.50;;;8.60;99.90;;;;;;4968340;27;20089;-89
2021/03/21 12:06:51;;;;;;;3.53;0.85;;;8.70;99.90;;;;;;4959267;27;20204;-87
2021/03/21 12:09:24;;;;;;;4.65;0.47;;;8.70;99.90;;;;;;4965635;27;20147;-86
2021/03/21 12:11:48;;;;;;;1.30;0.50;;;8.50;99.90;;;;;;4969499;27;20575;-86
2021/03/21 12:14:47;;;;;;;2.53;0.47;;;8.70;99.90;;;;;;4958702;27;20511;-83
2021/03/21 12:17:36;;;;;;;0.47;0.28;;;8.50;99.90;;;;;;4948325;27;20092;-86
2021/03/21 12:20:32;;;;;;;3.95;0.50;;;8.40;99.90;;;;;;4968634;27;20084;-85
2021/03/21 12:22:54;;;;;;;2.38;0.45;;;8.40;99.90;;;;;;4963160;27;20195;-89
2021/03/21 12:25:25;;;;;;;0.68;0.20;;;8.30;99.90;;;;;;4970795;27;20089;-89
2021/03/21 12:28:10;;;;;;;1.40;0.40;;;8.10;99.90;;;;;;4969457;27;20151;-88
2021/03/21 12:30:46;;;;;;;6.63;0.60;;;8.10;99.90;;;;;;4964579;27;20085;-88
2021/03/21 12:33:32;;;;;;;4.80;0.38;;;8.30;99.90;;;;;;4968275;27;20080;-86
2021/03/21 12:35:56;;;;;;;0.52;0.13;;;8.20;99.90;;;;;;4942878;27;20080;-85
2021/03/21 12:38:32;;;;;;;4.43;0.50;;;8.10;99.90;;;;;;4964116;27;20089;-89
2021/03/21 12:40:55;;;;;;;3.60;0.30;;;8.00;99.90;;;;;;4968987;27;20080;-85
2021/03/21 12:43:28;;;;;;;2.17;0.40;;;7.80;99.90;;;;;;4959329;27;20175;-87
2021/03/21 12:46:08;;;;;;;3.40;0.20;;;7.80;99.90;;;;;;4965373;27;20096;-85
2021/03/21 12:48:44;;;;;;;1.02;0.52;;;7.80;99.90;;;;;;4965941;27;20083;-82
2021/03/21 12:51:26;;;;;;;0.40;0.17;;;7.80;99.90;;;;;;4966067;27;20542;-86
2021/03/21 12:53:49;;;;;;;0.52;0.20;;;7.90;99.90;;;;;;4964190;27;20433;-84
2021/03/21 12:56:12;;;;;;;2.80;0.20;;;8.00;99.90;;;;;;4968525;27;20168;-86
2021/03/21 12:58:36;;;;;;;2.85;0.30;;;8.10;99.90;;;;;;4956785;27;20095;-86
2021/03/21 13:01:01;;;;;;;0.25;0.17;;;8.30;99.90;;;;;;4968726;27;20140;-82
2021/03/21 13:03:29;;;;;;;4.97;0.40;;;8.00;99.90;;;;;;4960302;27;20504;-85
2021/03/21 13:05:53;;;;;;;1.63;0.28;;;8.00;99.90;;;;;;4967483;27;20088;-87
2021/03/21 13:08:17;;;;;;;0.38;0.10;;;7.80;99.90;;;;;;4964329;27;20646;-85
2021/03/21 13:10:41;;;;;;;0.10;0.05;;;7.80;99.90;;;;;;4968317;27;20117;-87
2021/03/21 13:13:07;;;;;;;2.85;0.20;;;8.00;99.90;;;;;;4965742;27;20085;-88
2021/03/21 13:15:30;;;;;;;1.23;0.40;;;7.90;99.90;;;;;;4963131;27;20082;-86
2021/03/21 13:17:54;;;;;;;0.13;0.10;;;8.00;99.90;;;;;;4965969;27;20468;-86
2021/03/21 13:20:22;;;;;;;0.30;0.15;;;7.80;99.90;;;;;;4947426;27;20085;-82
2021/03/21 13:22:53;;;;;;;0.63;0.20;;;7.90;99.90;;;;;;4965792;27;20096;-85
2021/03/21 13:25:23;;;;;;;1.15;0.20;;;7.80;99.90;;;;;;4966058;27;20085;-88
2021/03/21 13:27:46;;;;;;;0.40;0.10;;;7.80;99.90;;;;;;4966401;27;20161;-85
2021/03/21 13:30:18;;;;;;;0.70;0.20;;;7.80;99.90;;;;;;4968358;27;20148;-85
2021/03/21 13:32:47;;;;;;;2.30;0.28;;;7.80;99.90;;;;;;4967051;27;20507;-85
2021/03/21 13:35:10;;;;;;;0.15;0.10;;;7.80;99.90;;;;;;4967682;27;20102;-85
2021/03/21 13:37:34;;;;;;;2.55;0.28;;;7.80;99.90;;;;;;4965994;27;20481;-85
2021/03/21 13:39:58;;;;;;;1.00;0.17;;;7.90;99.90;;;;;;4965518;27;20200;-83
2021/03/21 13:42:23;;;;;;;3.22;0.20;;;7.90;99.90;;;;;;4967531;27;20125;-83
2021/03/21 13:44:46;;;;;;;0.88;0.20;;;;;;;;;;4963267;27;20143;-86
2021/03/21 13:47:10;;;;;;;3.17;0.52;;;7.90;99.90;;;;;;4965516;27;20088;-83
2021/03/21 13:49:32;;;;;;;0.85;0.22;;;7.90;99.90;;;;;;4966560;27;20176;-86
2021/03/21 13:51:55;;;;;;;0.10;0.10;;;7.90;99.90;;;;;;4966011;27;20171;-85